Time;durP1;ratioP1;P1;durP2;ratioP2;P2;SDS_P1;SDS_P2;PMS_P1;PMS_P2;Temp;Humidity;BMP_temperature;BMP_pressure;BME280_temperature;BME280_humidity;BME280_pressure;Samples;Min_cycle;Max_cycle;Signal;HPM_P1;HPM_P2
2022/01/09 00:00:55;;;;;;;;;;;6.80;90.10;;;;;;5106617;27;20394;-62
2022/01/09 00:03:20;;;;;;;;;;;6.80;90.10;;;;;;5078435;28;19912;-62
2022/01/09 00:05:46;;;;;;;;;;;6.80;90.10;;;;;;5087528;28;19907;-61
2022/01/09 00:08:11;;;;;;;;;;;6.80;90.20;;;;;;5066101;28;19908;-62
2022/01/09 00:10:37;;;;;;;;;;;6.80;90.20;;;;;;5080070;28;20351;-63
2022/01/09 00:13:02;;;;;;;;;;;6.80;90.20;;;;;;5090442;28;20340;-62
2022/01/09 00:15:28;;;;;;;;;;;6.70;90.20;;;;;;5083734;28;19915;-62
2022/01/09 00:17:53;;;;;;;;;;;6.70;90.20;;;;;;5073766;27;19954;-61
2022/01/09 00:20:19;;;;;;;;;;;6.70;90.20;;;;;;5076926;28;19946;-61
2022/01/09 00:22:50;;;;;;;;;;;6.70;90.20;;;;;;5065368;28;19919;-62
2022/01/09 00:25:17;;;;;;;;;;;6.70;90.30;;;;;;5083569;28;19998;-62
2022/01/09 00:27:43;;;;;;;;;;;6.70;90.30;;;;;;5088227;28;19942;-62
2022/01/09 00:30:09;;;;;;;;;;;6.70;90.30;;;;;;5089630;28;19936;-62
2022/01/09 00:32:34;;;;;;;;;;;6.70;90.30;;;;;;5072166;28;19911;-62
2022/01/09 00:35:00;;;;;;;;;;;6.70;90.30;;;;;;5070932;28;19915;-61
2022/01/09 00:37:25;;;;;;;;;;;6.70;90.40;;;;;;5084713;28;20061;-62
2022/01/09 00:39:52;;;;;;;;;;;6.70;90.40;;;;;;5087110;28;19915;-61
2022/01/09 00:42:17;;;;;;;;;;;6.70;90.40;;;;;;5086849;28;19916;-61
2022/01/09 00:44:43;;;;;;;;;;;6.70;90.40;;;;;;5068926;28;20026;-61
2022/01/09 00:47:08;;;;;;;;;;;6.70;90.40;;;;;;5077560;28;20382;-61
2022/01/09 00:49:34;;;;;;;;;;;6.60;90.50;;;;;;5059432;28;19915;-62
2022/01/09 00:51:59;;;;;;;;;;;6.70;90.50;;;;;;5070333;28;19908;-62
2022/01/09 00:54:24;;;;;;;;;;;6.60;90.50;;;;;;5071623;28;19908;-61
2022/01/09 00:56:50;;;;;;;;;;;6.60;90.50;;;;;;5103893;28;19918;-62
2022/01/09 00:59:15;;;;;;;;;;;6.60;90.60;;;;;;5069505;28;19912;-61
2022/01/09 01:01:41;;;;;;;;;;;6.60;90.60;;;;;;5064679;28;20383;-61
2022/01/09 01:04:06;;;;;;;;;;;6.60;90.60;;;;;;5080092;28;19915;-62
2022/01/09 01:06:32;;;;;;;;;;;6.60;90.70;;;;;;5083187;28;19909;-62
2022/01/09 01:08:57;;;;;;;;;;;6.60;90.70;;;;;;5082365;28;20286;-62
2022/01/09 01:11:23;;;;;;;;;;;6.60;90.70;;;;;;5078176;28;19908;-62
2022/01/09 01:13:48;;;;;;;;;;;6.60;90.70;;;;;;5086291;28;19925;-62
2022/01/09 01:16:14;;;;;;;;;;;6.60;90.80;;;;;;5088455;28;19908;-62
2022/01/09 01:18:43;;;;;;;;;;;6.60;90.80;;;;;;5089972;28;19948;-61
2022/01/09 01:21:08;;;;;;;;;;;6.60;90.80;;;;;;5080532;28;19920;-61
2022/01/09 01:23:34;;;;;;;;;;;6.50;90.90;;;;;;5077018;28;20013;-61
2022/01/09 01:26:01;;;;;;;;;;;6.50;90.90;;;;;;5073903;28;19996;-62
2022/01/09 01:28:27;;;;;;;;;;;6.60;90.90;;;;;;5074152;28;19908;-61
2022/01/09 01:30:52;;;;;;;;;;;6.50;90.90;;;;;;5078026;28;20328;-61
2022/01/09 01:33:18;;;;;;;;;;;6.50;90.90;;;;;;5093953;28;20158;-61
2022/01/09 01:35:43;;;;;;;;;;;6.50;90.90;;;;;;5074921;28;19961;-61
2022/01/09 01:38:09;;;;;;;;;;;6.50;91.00;;;;;;5068298;28;19965;-62
2022/01/09 01:40:34;;;;;;;;;;;6.50;91.00;;;;;;5086329;28;19958;-62
2022/01/09 01:43:00;;;;;;;;;;;6.50;91.10;;;;;;5086961;28;19923;-62
2022/01/09 01:45:25;;;;;;;;;;;6.50;91.10;;;;;;5087988;28;19911;-62
2022/01/09 01:47:51;;;;;;;;;;;6.50;91.20;;;;;;5087291;28;20386;-62
2022/01/09 01:50:16;;;;;;;;;;;6.50;91.20;;;;;;5064554;28;19938;-62
2022/01/09 01:52:45;;;;;;;;;;;6.50;91.30;;;;;;5087359;28;20325;-62
2022/01/09 01:55:11;;;;;;;;;;;6.50;91.30;;;;;;5074024;28;20343;-62
2022/01/09 01:57:40;;;;;;;;;;;6.40;91.30;;;;;;5069010;28;19966;-61
2022/01/09 02:00:06;;;;;;;;;;;6.50;91.30;;;;;;5081643;28;19908;-62
2022/01/09 02:02:32;;;;;;;;;;;6.50;91.50;;;;;;5090855;28;19920;-62
2022/01/09 02:04:57;;;;;;;;;;;6.40;91.50;;;;;;5075644;28;19998;-62
2022/01/09 02:07:23;;;;;;;;;;;6.40;91.60;;;;;;5087393;28;20282;-62
2022/01/09 02:09:48;;;;;;;;;;;6.40;91.70;;;;;;5068735;27;19918;-63
2022/01/09 02:12:14;;;;;;;;;;;6.40;91.80;;;;;;5086744;28;19920;-61
2022/01/09 02:14:43;;;;;;;;;;;6.40;91.90;;;;;;5067893;28;19912;-62
2022/01/09 02:17:09;;;;;;;;;;;6.40;92.00;;;;;;5094179;28;20437;-61
2022/01/09 02:19:34;;;;;;;;;;;6.40;92.00;;;;;;5080422;28;19918;-62
2022/01/09 02:22:00;;;;;;;;;;;6.40;92.10;;;;;;5088433;28;19919;-62
2022/01/09 02:24:25;;;;;;;;;;;6.40;92.20;;;;;;5077011;28;19961;-63
2022/01/09 02:26:51;;;;;;;;;;;6.40;92.10;;;;;;5088781;28;19911;-62
2022/01/09 02:29:17;;;;;;;;;;;6.40;92.10;;;;;;5107451;28;20271;-63
2022/01/09 02:31:42;;;;;;;;;;;6.40;92.10;;;;;;5075516;28;19915;-62
2022/01/09 02:34:08;;;;;;;;;;;6.40;92.20;;;;;;5089260;28;19908;-62
2022/01/09 02:36:34;;;;;;;;;;;6.40;92.30;;;;;;5089602;28;19907;-61
2022/01/09 02:38:59;;;;;;;;;;;6.40;92.30;;;;;;5070179;28;19943;-62
2022/01/09 02:41:25;;;;;;;;;;;6.40;92.40;;;;;;5103616;28;19916;-62
2022/01/09 02:43:50;;;;;;;;;;;6.40;92.50;;;;;;5086892;28;19912;-62
2022/01/09 02:49:03;;;;;;;;;;;6.40;92.50;;;;;;5092515;28;19993;-62
2022/01/09 02:51:29;;;;;;;;;;;6.40;92.60;;;;;;5088103;28;19915;-62
2022/01/09 02:54:08;;;;;;;;;;;6.40;92.60;;;;;;5061027;28;20642;-62
2022/01/09 02:56:33;;;;;;;;;;;6.50;92.60;;;;;;5081255;27;19915;-62
2022/01/09 02:58:58;;;;;;;;;;;6.40;92.70;;;;;;5082753;28;19912;-62
2022/01/09 03:01:24;;;;;;;;;;;6.40;92.80;;;;;;5081207;28;20022;-62
2022/01/09 03:03:49;;;;;;;;;;;6.40;92.80;;;;;;5078149;27;20383;-62
2022/01/09 03:06:15;;;;;;;;;;;6.40;92.80;;;;;;5073438;28;19908;-62
2022/01/09 03:08:40;;;;;;;;;;;6.40;92.80;;;;;;5072431;28;19917;-62
2022/01/09 03:11:06;;;;;;;;;;;6.40;92.80;;;;;;5069586;28;20445;-62
2022/01/09 03:13:32;;;;;;;;;;;6.40;92.80;;;;;;5083870;28;19915;-62
2022/01/09 03:15:58;;;;;;;;;;;6.40;92.80;;;;;;5078697;27;19995;-62
2022/01/09 03:18:23;;;;;;;;;;;6.50;92.80;;;;;;5065855;28;19928;-62
2022/01/09 03:20:49;;;;;;;;;;;6.40;92.90;;;;;;5089664;28;19941;-62
2022/01/09 03:23:14;;;;;;;;;;;6.50;92.90;;;;;;5074618;28;20451;-62
2022/01/09 03:25:39;;;;;;;;;;;6.40;92.90;;;;;;5102972;27;19938;-62
2022/01/09 03:28:05;;;;;;;;;;;6.40;92.90;;;;;;5065134;28;20355;-62
2022/01/09 03:30:30;;;;;;;;;;;6.40;93.00;;;;;;5060946;28;19920;-62
2022/01/09 03:32:56;;;;;;;;;;;6.40;93.00;;;;;;5085463;28;19912;-62
2022/01/09 03:35:22;;;;;;;;;;;6.50;93.10;;;;;;5067371;28;20019;-61
2022/01/09 03:37:47;;;;;;;;;;;6.40;93.10;;;;;;5065968;28;19912;-62
2022/01/09 03:40:18;;;;;;;;;;;6.40;93.10;;;;;;5085610;28;19912;-62
2022/01/09 03:42:44;;;;;;;;;;;6.40;93.10;;;;;;5080687;28;19920;-62
2022/01/09 03:45:09;;;;;;;;;;;6.40;93.20;;;;;;5074469;28;19908;-62
2022/01/09 03:47:35;;;;;;;;;;;6.40;93.30;;;;;;5081410;28;19916;-62
2022/01/09 03:50:04;;;;;;;;;;;6.40;93.30;;;;;;5069973;28;19916;-62
2022/01/09 03:52:30;;;;;;;;;;;6.40;93.30;;;;;;5089448;28;19912;-62
2022/01/09 03:54:55;;;;;;;;;;;6.40;93.50;;;;;;5073661;28;20512;-61
2022/01/09 03:57:21;;;;;;;;;;;6.40;93.50;;;;;;5066118;28;19963;-62
2022/01/09 03:59:46;;;;;;;;;;;6.40;93.60;;;;;;5089840;28;20379;-62
2022/01/09 04:02:12;;;;;;;;;;;6.40;93.60;;;;;;5074947;28;19920;-62
2022/01/09 04:04:37;;;;;;;;;;;6.40;93.70;;;;;;5065718;28;19919;-61
2022/01/09 04:07:03;;;;;;;;;;;6.40;93.80;;;;;;5082813;28;19916;-62
2022/01/09 04:09:38;;;;;;;;;;;6.40;93.80;;;;;;5061638;28;19920;-61
2022/01/09 04:12:06;;;;;;;;;;;6.40;93.80;;;;;;5082088;28;19916;-61
2022/01/09 04:14:32;;;;;;;;;;;6.40;93.80;;;;;;5078463;28;19998;-62
2022/01/09 04:16:59;;;;;;;;;;;6.40;93.80;;;;;;5073627;28;19999;-62
2022/01/09 04:19:25;;;;;;;;;;;6.40;93.80;;;;;;5063183;28;19916;-62
2022/01/09 04:21:50;;;;;;;;;;;6.40;93.80;;;;;;5070355;28;19916;-61
2022/01/09 04:24:15;;;;;;;;;;;6.40;93.90;;;;;;5067665;28;19908;-61
2022/01/09 04:26:41;;;;;;;;;;;6.40;93.90;;;;;;5065187;28;19958;-62
2022/01/09 04:29:06;;;;;;;;;;;6.40;93.90;;;;;;5061673;28;20253;-62
2022/01/09 04:31:32;;;;;;;;;;;6.40;93.90;;;;;;5076475;28;19908;-62
2022/01/09 04:33:57;;;;;;;;;;;6.40;93.80;;;;;;5070722;28;19915;-61
2022/01/09 04:36:23;;;;;;;;;;;6.40;93.80;;;;;;5081978;28;19924;-61
2022/01/09 04:38:49;;;;;;;;;;;6.40;93.90;;;;;;5068277;28;20318;-61
2022/01/09 04:41:14;;;;;;;;;;;6.40;93.80;;;;;;5084605;28;19943;-62
2022/01/09 04:43:42;;;;;;;;;;;6.40;93.80;;;;;;5068486;28;19988;-62
2022/01/09 04:46:09;;;;;;;;;;;6.40;93.90;;;;;;5084477;28;19931;-62
2022/01/09 04:48:34;;;;;;;;;;;6.40;93.90;;;;;;5087449;28;19912;-62
2022/01/09 04:51:00;;;;;;;;;;;6.40;93.90;;;;;;5083796;28;19946;-61
2022/01/09 04:53:25;;;;;;;;;;;6.40;93.90;;;;;;5069047;28;20372;-62
2022/01/09 04:55:51;;;;;;;;;;;6.40;93.90;;;;;;5072857;28;19916;-62
2022/01/09 04:58:16;;;;;;;;;;;6.40;93.90;;;;;;5087045;28;19930;-62
2022/01/09 05:00:42;;;;;;;;;;;6.40;93.80;;;;;;5069534;28;20011;-62
2022/01/09 05:03:08;;;;;;;;;;;6.40;93.90;;;;;;5098181;28;19916;-62
2022/01/09 05:05:34;;;;;;;;;;;6.40;93.80;;;;;;5079249;28;19939;-62
2022/01/09 05:07:59;;;;;;;;;;;6.40;93.80;;;;;;5069456;28;19943;-62
2022/01/09 05:10:25;;;;;;;;;;;6.40;93.80;;;;;;5086353;28;19934;-62
2022/01/09 05:12:50;;;;;;;;;;;6.40;93.80;;;;;;5082681;28;19978;-61
2022/01/09 05:15:18;;;;;;;;;;;6.40;93.80;;;;;;5066703;28;19923;-61
2022/01/09 05:17:44;;;;;;;;;;;6.40;93.80;;;;;;5084177;28;19970;-61
2022/01/09 05:20:09;;;;;;;;;;;6.30;93.80;;;;;;5081633;28;19916;-62
2022/01/09 05:22:35;;;;;;;;;;;6.40;93.90;;;;;;5079809;28;20403;-62
2022/01/09 05:25:02;;;;;;;;;;;6.40;93.90;;;;;;5070549;28;19908;-62
2022/01/09 05:27:28;;;;;;;;;;;6.30;93.90;;;;;;5071360;28;19948;-62
2022/01/09 05:29:53;;;;;;;;;;;6.30;94.00;;;;;;5086572;28;19943;-62
2022/01/09 05:32:19;;;;;;;;;;;6.30;94.00;;;;;;5066562;28;19919;-62
2022/01/09 05:34:44;;;;;;;;;;;6.30;94.00;;;;;;5068849;28;19912;-61
2022/01/09 05:37:10;;;;;;;;;;;6.30;94.00;;;;;;5084052;28;19908;-62
2022/01/09 05:39:35;;;;;;;;;;;6.30;94.00;;;;;;5069252;28;19998;-62
2022/01/09 05:42:02;;;;;;;;;;;6.50;94.10;;;;;;5070654;28;19922;-62
2022/01/09 05:44:27;;;;;;;;;;;6.30;94.00;;;;;;5087800;28;19911;-61
2022/01/09 05:46:53;;;;;;;;;;;6.30;94.00;;;;;;5078080;28;19950;-62
2022/01/09 05:49:18;;;;;;;;;;;6.30;94.00;;;;;;5069360;28;19961;-62
2022/01/09 05:51:43;;;;;;;;;;;6.30;94.00;;;;;;5070444;28;19915;-62
2022/01/09 05:54:09;;;;;;;;;;;6.30;94.00;;;;;;5084265;28;20477;-62
2022/01/09 05:56:34;;;;;;;;;;;6.30;93.90;;;;;;5079293;28;19916;-62
2022/01/09 05:59:00;;;;;;;;;;;6.30;93.90;;;;;;5084537;28;19953;-62
2022/01/09 06:01:25;;;;;;;;;;;6.20;93.90;;;;;;5079437;28;19931;-62
2022/01/09 06:03:51;;;;;;;;;;;6.30;93.90;;;;;;5088825;28;19912;-62
2022/01/09 06:06:16;;;;;;;;;;;6.20;93.90;;;;;;5081215;28;19970;-62
2022/01/09 06:08:42;;;;;;;;;;;6.30;93.90;;;;;;5073464;28;19912;-62
2022/01/09 06:11:07;;;;;;;;;;;6.20;93.90;;;;;;5086239;28;20011;-62
2022/01/09 06:13:33;;;;;;;;;;;6.20;93.80;;;;;;5086495;28;19992;-62
2022/01/09 06:15:58;;;;;;;;;;;6.30;93.80;;;;;;5076446;28;19912;-62
2022/01/09 06:18:23;;;;;;;;;;;6.30;93.90;;;;;;5067030;28;20255;-62
2022/01/09 06:20:49;;;;;;;;;;;6.30;93.80;;;;;;5085792;28;19961;-62
2022/01/09 06:23:20;;;;;;;;;;;6.20;93.80;;;;;;5063803;28;19916;-62
2022/01/09 06:25:49;;;;;;;;;;;6.30;93.80;;;;;;5083232;28;19912;-61
2022/01/09 06:28:14;;;;;;;;;;;6.20;93.70;;;;;;5066426;28;19912;-63
2022/01/09 06:30:40;;;;;;;;;;;6.20;93.70;;;;;;5078103;28;19915;-62
2022/01/09 06:33:05;;;;;;;;;;;6.20;93.60;;;;;;5085404;28;19908;-63
2022/01/09 06:35:31;;;;;;;;;;;6.20;93.60;;;;;;5074263;28;19960;-62
2022/01/09 06:37:56;;;;;;;;;;;6.20;93.70;;;;;;5083701;27;20562;-62
2022/01/09 06:40:22;;;;;;;;;;;6.20;93.60;;;;;;5092883;28;19912;-62
2022/01/09 06:42:47;;;;;;;;;;;6.20;93.60;;;;;;5068013;28;19916;-63
2022/01/09 06:45:13;;;;;;;;;;;6.10;93.60;;;;;;5080727;28;19957;-63
2022/01/09 06:47:38;;;;;;;;;;;6.20;93.60;;;;;;5082526;28;19927;-61
2022/01/09 06:50:04;;;;;;;;;;;6.20;93.60;;;;;;5063062;28;19919;-61
2022/01/09 06:52:29;;;;;;;;;;;6.10;93.60;;;;;;5097876;28;19930;-63
2022/01/09 06:54:55;;;;;;;;;;;6.20;93.60;;;;;;5084392;28;19995;-61
2022/01/09 06:57:20;;;;;;;;;;;6.10;93.60;;;;;;5089357;28;19907;-61
2022/01/09 06:59:46;;;;;;;;;;;6.10;93.50;;;;;;5079816;28;19912;-63
2022/01/09 07:02:11;;;;;;;;;;;6.10;93.50;;;;;;5080332;28;19920;-63
2022/01/09 07:04:37;;;;;;;;;;;6.10;93.50;;;;;;5086275;28;20279;-63
2022/01/09 07:07:02;;;;;;;;;;;6.10;93.50;;;;;;5090109;28;19957;-62
2022/01/09 07:09:28;;;;;;;;;;;6.20;93.50;;;;;;5089695;28;20006;-62
2022/01/09 07:11:53;;;;;;;;;;;6.10;93.40;;;;;;5085820;28;19908;-63
2022/01/09 07:14:19;;;;;;;;;;;6.10;93.40;;;;;;5070848;28;20471;-62
2022/01/09 07:16:44;;;;;;;;;;;6.10;93.40;;;;;;5076490;28;19919;-62
2022/01/09 07:19:10;;;;;;;;;;;6.10;93.40;;;;;;5104728;28;20429;-63
2022/01/09 07:21:35;;;;;;;;;;;6.10;93.40;;;;;;5075138;28;19911;-62
2022/01/09 07:24:00;;;;;;;;;;;6.10;93.30;;;;;;5068100;27;19924;-62
2022/01/09 07:26:26;;;;;;;;;;;6.10;93.30;;;;;;5082286;28;19912;-63
2022/01/09 07:28:52;;;;;;;;;;;6.10;93.30;;;;;;5069112;28;19974;-62
2022/01/09 07:31:17;;;;;;;;;;;6.10;93.20;;;;;;5081452;28;19908;-63
2022/01/09 07:33:43;;;;;;;;;;;6.10;93.20;;;;;;5070047;28;20474;-62
2022/01/09 07:36:08;;;;;;;;;;;6.10;93.20;;;;;;5066182;28;19916;-62
2022/01/09 07:38:34;;;;;;;;;;;6.10;93.20;;;;;;5072535;28;19908;-62
2022/01/09 07:40:59;;;;;;;;;;;6.10;93.20;;;;;;5090403;28;19914;-61
2022/01/09 07:43:25;;;;;;;;;;;6.10;93.40;;;;;;5086704;28;20450;-63
2022/01/09 07:45:50;;;;;;;;;;;6.10;93.00;;;;;;5115600;27;19969;-62
2022/01/09 07:48:15;;;;;;;;;;;6.10;93.00;;;;;;5105347;27;20332;-63
2022/01/09 07:50:41;;;;;;;;;;;6.10;93.00;;;;;;5109956;27;19911;-63
2022/01/09 07:53:07;;;;;;;;;;;6.10;93.00;;;;;;5089817;28;20010;-63
2022/01/09 07:55:32;;;;;;;;;;;6.10;93.00;;;;;;5088671;28;20389;-62
2022/01/09 07:57:57;;;;;;;;;;;6.10;93.00;;;;;;5071821;28;19938;-63
2022/01/09 08:00:23;;;;;;;;;;;6.10;92.90;;;;;;5076860;28;19912;-62
2022/01/09 08:02:49;;;;;;;;;;;6.10;92.80;;;;;;5068083;28;20379;-63
2022/01/09 08:05:15;;;;;;;;;;;6.00;92.80;;;;;;5076044;28;19973;-63
2022/01/09 08:07:40;;;;;;;;;;;6.00;92.70;;;;;;5062238;28;19998;-62
2022/01/09 08:10:06;;;;;;;;;;;6.10;92.70;;;;;;5066428;28;19950;-61
2022/01/09 08:12:31;;;;;;;;;;;6.10;92.60;;;;;;5079201;28;19943;-63
2022/01/09 08:14:57;;;;;;;;;;;6.10;92.50;;;;;;5106791;27;19930;-62
2022/01/09 08:17:22;;;;;;;;;;;6.00;92.40;;;;;;5107574;27;19916;-63
2022/01/09 08:19:48;;;;;;;;;;;6.00;92.40;;;;;;5080614;28;19919;-63
2022/01/09 08:22:13;;;;;;;;;;;6.00;92.40;;;;;;5073028;28;19916;-62
2022/01/09 08:24:39;;;;;;;;;;;6.00;92.30;;;;;;5078976;28;19985;-63
2022/01/09 08:27:04;;;;;;;;;;;6.10;92.30;;;;;;5082178;28;19912;-63
2022/01/09 08:29:30;;;;;;;;;;;6.10;92.30;;;;;;5074609;28;20278;-63
2022/01/09 08:31:55;;;;;;;;;;;6.00;92.30;;;;;;5089289;28;19908;-63
2022/01/09 08:34:21;;;;;;;;;;;6.00;92.20;;;;;;5072632;28;19908;-63
2022/01/09 08:36:46;;;;;;;;;;;6.10;92.20;;;;;;5068470;28;20392;-64
2022/01/09 08:39:11;;;;;;;;;;;6.00;92.20;;;;;;5072418;28;19909;-62
2022/01/09 08:41:37;;;;;;;;;;;6.00;92.20;;;;;;5090254;28;19919;-62
2022/01/09 08:44:04;;;;;;;;;;;6.10;92.10;;;;;;5073453;28;19907;-62
2022/01/09 08:46:30;;;;;;;;;;;6.10;92.00;;;;;;5089741;28;19950;-62
2022/01/09 08:48:55;;;;;;;;;;;6.10;92.00;;;;;;5089335;28;19908;-62
2022/01/09 08:51:21;;;;;;;;;;;6.10;92.00;;;;;;5076780;28;19916;-63
2022/01/09 08:53:50;;;;;;;;;;;6.10;92.10;;;;;;5072176;28;20002;-62
2022/01/09 08:56:17;;;;;;;;;;;6.10;92.00;;;;;;5091785;28;19911;-63
2022/01/09 08:58:42;;;;;;;;;;;6.10;91.90;;;;;;5088777;28;19912;-62
2022/01/09 09:01:07;;;;;;;;;;;6.10;91.90;;;;;;5068048;28;19926;-62
2022/01/09 09:03:35;;;;;;;;;;;6.20;91.90;;;;;;5082198;28;19918;-62
2022/01/09 09:06:01;;;;;;;;;;;6.20;91.90;;;;;;5078637;28;20375;-63
2022/01/09 09:08:27;;;;;;;;;;;6.20;91.90;;;;;;5066394;28;20279;-62
2022/01/09 09:10:52;;;;;;;;;;;6.10;91.90;;;;;;5066625;28;19920;-62
2022/01/09 09:13:18;;;;;;;;;;;6.10;91.90;;;;;;5084729;28;19932;-62
2022/01/09 09:15:43;;;;;;;;;;;6.20;91.90;;;;;;5076051;28;20158;-62
2022/01/09 09:18:09;;;;;;;;;;;6.20;91.90;;;;;;5079741;28;19920;-62
2022/01/09 09:20:34;;;;;;;;;;;6.20;91.90;;;;;;5065064;28;19912;-63
2022/01/09 09:23:00;;;;;;;;;;;6.20;92.00;;;;;;5063215;28;19965;-62
2022/01/09 09:25:25;;;;;;;;;;;6.20;92.00;;;;;;5063931;28;20403;-63
2022/01/09 09:27:50;;;;;;;;;;;6.20;92.00;;;;;;5063401;28;19943;-63
2022/01/09 09:30:16;;;;;;;;;;;6.30;92.00;;;;;;5067959;28;20011;-63
2022/01/09 09:32:42;;;;;;;;;;;6.20;91.90;;;;;;5071572;28;19917;-63
2022/01/09 09:35:07;;;;;;;;;;;6.20;92.00;;;;;;5077596;28;20362;-63
2022/01/09 09:37:33;;;;;;;;;;;6.20;92.00;;;;;;5080687;28;20375;-61
2022/01/09 09:39:58;;;;;;;;;;;6.30;92.10;;;;;;5077802;28;20459;-63
2022/01/09 09:42:24;;;;;;;;;;;6.30;92.10;;;;;;5073977;28;19999;-62
2022/01/09 09:44:49;;;;;;;;;;;6.30;92.20;;;;;;5067134;28;19912;-62
2022/01/09 09:47:18;;;;;;;;;;;6.30;92.20;;;;;;5077613;28;19912;-62
2022/01/09 09:49:45;;;;;;;;;;;6.30;92.20;;;;;;5084081;28;19912;-62
2022/01/09 09:52:10;;;;;;;;;;;6.30;92.30;;;;;;5074085;28;20026;-61
2022/01/09 09:54:36;;;;;;;;;;;6.40;92.30;;;;;;5065778;28;20320;-63
2022/01/09 09:57:01;;;;;;;;;;;6.40;92.40;;;;;;5069961;28;19916;-63
2022/01/09 09:59:29;;;;;;;;;;;6.40;92.40;;;;;;5071868;28;20054;-62
2022/01/09 10:01:54;;;;;;;;;;;6.40;92.50;;;;;;5102232;28;20012;-61
2022/01/09 10:04:20;;;;;;;;;;;6.50;92.60;;;;;;5068815;28;19924;-63
2022/01/09 10:06:46;;;;;;;;;;;6.50;92.60;;;;;;5073834;28;19913;-62
2022/01/09 10:09:12;;;;;;;;;;;6.50;92.60;;;;;;5063297;28;19991;-63
2022/01/09 10:11:42;;;;;;;;;;;6.50;92.70;;;;;;5071149;28;19923;-63
2022/01/09 10:14:11;;;;;;;;;;;6.60;92.80;;;;;;5067091;28;19912;-62
2022/01/09 10:16:37;;;;;;;;;;;6.60;92.80;;;;;;5071032;28;19966;-63
2022/01/09 10:19:02;;;;;;;;;;;6.60;92.90;;;;;;5068516;28;20372;-62
2022/01/09 10:21:27;;;;;;;;;;;6.60;92.90;;;;;;5068412;28;19941;-63
2022/01/09 10:24:00;;;;;;;;;;;6.60;93.00;;;;;;5067614;28;19919;-62
2022/01/09 10:26:26;;;;;;;;;;;6.60;93.00;;;;;;5071794;28;20279;-62
2022/01/09 10:28:51;;;;;;;;;;;6.70;93.20;;;;;;5073877;28;19912;-64
2022/01/09 10:31:17;;;;;;;;;;;6.70;93.10;;;;;;5079215;28;19913;-61
2022/01/09 10:33:55;;;;;;;;;;;6.70;93.10;;;;;;5075827;28;20375;-62
2022/01/09 10:36:33;;;;;;;;;;;6.70;93.10;;;;;;5080705;28;20028;-61
2022/01/09 10:39:02;;;;;;;;;;;6.80;93.20;;;;;;5076726;28;19924;-62
2022/01/09 10:41:43;;;;;;;;;;;6.80;93.20;;;;;;5061281;28;20016;-62
2022/01/09 10:44:12;;;;;;;;;;;6.80;93.20;;;;;;5061568;28;19962;-61
2022/01/09 10:46:38;;;;;;;;;;;6.80;93.20;;;;;;5064391;28;19917;-62
2022/01/09 10:49:03;;;;;;;;;;;7.00;93.40;;;;;;5080420;28;19980;-63
2022/01/09 10:51:29;;;;;;;;;;;6.90;93.40;;;;;;5066805;28;19970;-63
2022/01/09 10:53:54;;;;;;;;;;;6.90;93.40;;;;;;5076001;28;19916;-63
2022/01/09 10:56:20;;;;;;;;;;;7.00;93.50;;;;;;5065337;28;19964;-62
2022/01/09 10:58:56;;;;;;;;;;;7.00;93.50;;;;;;5083243;28;19996;-62
2022/01/09 11:01:28;;;;;;;;;;;7.00;93.50;;;;;;5066596;28;19928;-62
2022/01/09 11:03:57;;;;;;;;;;;7.10;93.60;;;;;;5061197;28;19917;-63
2022/01/09 11:06:23;;;;;;;;;;;7.10;93.80;;;;;;5060164;28;19944;-62
2022/01/09 11:08:49;;;;;;;;;;;7.10;93.80;;;;;;5043936;28;20054;-63
2022/01/09 11:14:01;;;;;;;;;;;7.20;93.90;;;;;;5057289;28;20017;-62
2022/01/09 11:16:33;;;;;;;;;;;7.20;94.00;;;;;;5047072;28;20002;-63
2022/01/09 11:19:12;;;;;;;;;;;7.30;94.00;;;;;;5057600;28;19928;-63
2022/01/09 11:21:39;;;;;;;;;;;7.30;94.00;;;;;;5055074;28;20014;-63
2022/01/09 11:24:14;;;;;;;;;;;7.30;94.00;;;;;;5044334;28;20501;-63
2022/01/09 11:26:58;;;;;;;;;;;7.40;93.90;;;;;;5056484;28;19993;-63
2022/01/09 11:29:27;;;;;;;;;;;7.40;93.90;;;;;;5062404;28;19913;-62
2022/01/09 11:31:59;;;;;;;;;;;7.40;93.90;;;;;;5076204;28;19916;-63
2022/01/09 11:34:42;;;;;;;;;;;7.40;93.90;;;;;;5056997;28;19961;-63
2022/01/09 11:37:27;;;;;;;;;;;7.50;94.00;;;;;;5037595;28;19916;-63
2022/01/09 11:39:52;;;;;;;;;;;7.50;94.00;;;;;;5070349;28;19956;-62
2022/01/09 11:42:18;;;;;;;;;;;7.50;93.90;;;;;;5055290;28;20363;-63
2022/01/09 11:44:50;;;;;;;;;;;7.50;93.80;;;;;;5055624;28;19917;-63
2022/01/09 11:47:16;;;;;;;;;;;7.60;93.90;;;;;;5054685;28;20198;-62
2022/01/09 11:49:54;;;;;;;;;;;7.60;94.10;;;;;;5047795;28;19916;-63
2022/01/09 11:52:19;;;;;;;;;;;7.40;93.90;;;;;;5053697;28;20007;-64
2022/01/09 11:54:46;;;;;;;;;;;7.60;93.90;;;;;;5051048;28;19991;-62
2022/01/09 11:57:18;;;;;;;;;;;7.60;93.90;;;;;;5054465;28;19972;-63
2022/01/09 11:59:51;;;;;;;;;;;7.60;94.00;;;;;;5058518;28;19981;-62
2022/01/09 12:02:16;;;;;;;;;;;7.70;93.90;;;;;;5064954;28;20397;-63
2022/01/09 12:04:42;;;;;;;;;;;7.60;93.90;;;;;;5070168;28;19912;-63
2022/01/09 12:07:09;;;;;;;;;;;7.60;93.90;;;;;;5077588;28;20417;-62
2022/01/09 12:09:45;;;;;;;;;;;7.60;93.80;;;;;;5075323;28;19912;-61
2022/01/09 12:12:10;;;;;;;;;;;7.60;93.80;;;;;;5061174;28;19943;-65
2022/01/09 12:14:53;;;;;;;;;;;7.80;93.90;;;;;;5073248;28;19913;-62
2022/01/09 12:17:22;;;;;;;;;;;7.60;93.90;;;;;;5062634;28;20516;-62
2022/01/09 12:20:09;;;;;;;;;;;7.60;93.90;;;;;;5074848;28;19917;-62
2022/01/09 12:25:09;;;;;;;;;;;7.70;93.90;;;;;;5075970;28;19976;-63
2022/01/09 12:27:35;;;;;;;;;;;7.60;93.80;;;;;;5068165;28;19927;-62
2022/01/09 12:30:01;;;;;;;;;;;7.60;93.90;;;;;;5077083;28;19923;-62
2022/01/09 12:32:43;;;;;;;;;;;7.60;93.90;;;;;;5071309;28;19917;-62
2022/01/09 12:35:18;;;;;;;;;;;7.60;93.90;;;;;;5076591;28;20011;-62
2022/01/09 12:37:47;;;;;;;;;;;7.70;93.90;;;;;;5073512;28;19921;-63
2022/01/09 12:40:14;;;;;;;;;;;7.60;93.90;;;;;;5063656;28;20313;-63
2022/01/09 12:42:43;;;;;;;;;;;7.60;93.90;;;;;;5063344;28;20022;-62
2022/01/09 12:45:09;;;;;;;;;;;7.60;93.90;;;;;;5072725;28;19979;-63
2022/01/09 12:47:40;;;;;;;;;;;7.60;93.90;;;;;;5075794;28;20005;-62
2022/01/09 12:50:06;;;;;;;;;;;7.70;93.90;;;;;;5072653;28;20388;-63
2022/01/09 12:52:31;;;;;;;;;;;7.70;94.00;;;;;;5057969;28;19996;-63
2022/01/09 12:55:06;;;;;;;;;;;7.70;94.00;;;;;;5065022;28;19920;-63
2022/01/09 12:57:51;;;;;;;;;;;7.70;94.00;;;;;;5060602;28;20368;-62
2022/01/09 13:00:16;;;;;;;;;;;7.70;94.00;;;;;;5081044;28;19955;-62
2022/01/09 13:02:50;;;;;;;;;;;7.70;94.00;;;;;;5074699;28;20292;-63
2022/01/09 13:05:19;;;;;;;;;;;7.70;94.00;;;;;;5062954;28;20378;-62
2022/01/09 13:07:45;;;;;;;;;;;7.70;93.90;;;;;;5083174;28;19912;-63
2022/01/09 13:10:12;;;;;;;;;;;7.70;94.00;;;;;;5066135;28;19966;-63
2022/01/09 13:12:37;;;;;;;;;;;7.70;94.00;;;;;;5074148;28;19916;-63
2022/01/09 13:15:03;;;;;;;;;;;7.70;94.10;;;;;;5073153;28;19946;-61
2022/01/09 13:17:29;;;;;;;;;;;7.80;94.20;;;;;;5067659;28;20420;-63
2022/01/09 13:19:54;;;;;;;;;;;7.80;94.20;;;;;;5069057;28;20048;-64
2022/01/09 13:22:21;;;;;;;;;;;7.80;94.10;;;;;;5085403;28;20466;-62
2022/01/09 13:24:46;;;;;;;;;;;7.80;94.10;;;;;;5074262;28;19920;-62
2022/01/09 13:27:12;;;;;;;;;;;7.80;94.10;;;;;;5070972;28;19912;-62
2022/01/09 13:29:42;;;;;;;;;;;7.80;94.10;;;;;;5081777;28;19924;-62
2022/01/09 13:32:07;;;;;;;;;;;7.80;94.10;;;;;;5086981;28;20058;-63
2022/01/09 13:34:34;;;;;;;;;;;7.90;94.20;;;;;;5079567;28;20305;-62
2022/01/09 13:37:00;;;;;;;;;;;7.90;94.10;;;;;;5079888;28;19916;-63
2022/01/09 13:39:26;;;;;;;;;;;7.90;94.10;;;;;;5069863;28;19955;-63
2022/01/09 13:41:54;;;;;;;;;;;7.90;94.10;;;;;;5078029;28;20025;-61
2022/01/09 13:44:23;;;;;;;;;;;8.00;94.10;;;;;;5081206;28;20398;-60
2022/01/09 13:47:02;;;;;;;;;;;8.00;94.40;;;;;;5075521;28;20054;-61
2022/01/09 13:49:28;;;;;;;;;;;8.00;94.10;;;;;;5077494;28;19936;-60
2022/01/09 13:51:54;;;;;;;;;;;8.00;94.10;;;;;;5058402;28;19917;-59
2022/01/09 13:54:20;;;;;;;;;;;8.00;94.00;;;;;;5074610;28;19931;-61
2022/01/09 13:56:59;;;;;;;;;;;8.10;93.90;;;;;;5075983;28;20015;-61
2022/01/09 13:59:33;;;;;;;;;;;8.00;94.00;;;;;;5079282;28;19916;-60
2022/01/09 14:01:59;;;;;;;;;;;8.10;94.00;;;;;;5065508;28;20007;-61
2022/01/09 14:04:24;;;;;;;;;;;8.10;94.00;;;;;;5048817;28;19950;-61
2022/01/09 14:07:00;;;;;;;;;;;8.10;94.10;;;;;;5049309;28;20032;-60
2022/01/09 14:09:26;;;;;;;;;;;8.20;94.30;;;;;;5063941;28;19924;-60
2022/01/09 14:12:18;;;;;;;;;;;8.40;94.10;;;;;;5043763;28;19916;-62
2022/01/09 14:14:44;;;;;;;;;;;8.20;94.10;;;;;;5060248;28;20012;-60
2022/01/09 14:17:29;;;;;;;;;;;8.30;94.20;;;;;;5064877;28;19965;-61
2022/01/09 14:19:55;;;;;;;;;;;8.30;94.00;;;;;;5065217;28;19919;-60
2022/01/09 14:22:21;;;;;;;;;;;8.30;94.00;;;;;;5064746;28;19920;-61
2022/01/09 14:25:00;;;;;;;;;;;8.30;94.10;;;;;;5064982;28;19935;-61
2022/01/09 14:27:26;;;;;;;;;;;8.40;94.10;;;;;;5073980;28;19982;-60
2022/01/09 14:29:51;;;;;;;;;;;8.40;94.40;;;;;;5066944;28;19939;-61
2022/01/09 14:32:17;;;;;;;;;;;8.40;94.20;;;;;;5060403;28;19916;-60
2022/01/09 14:34:43;;;;;;;;;;;8.70;94.20;;;;;;5049479;28;19932;-59
2022/01/09 14:37:09;;;;;;;;;;;8.50;94.10;;;;;;5053003;28;20514;-61